createdAt,value
2022-09-29T08:03:31.800Z,48.02
2022-09-29T08:04:31.748Z,47.81
2022-09-29T08:05:31.739Z,47.72
2022-09-29T08:06:31.741Z,47.61
2022-09-29T08:07:32.383Z,47.72
2022-09-29T08:08:31.679Z,47.61
2022-09-29T08:09:40.422Z,47.31
2022-09-29T08:10:35.082Z,47.22
2022-09-29T08:11:33.253Z,47.22
2022-09-29T08:12:41.217Z,47.22
2022-09-29T08:13:32.637Z,47.22
2022-09-29T08:14:31.609Z,47.02
2022-09-29T08:15:31.636Z,46.92
2022-09-29T08:16:31.704Z,46.92
2022-09-29T08:17:31.588Z,46.80
2022-09-29T08:18:31.568Z,46.80
2022-09-29T08:19:31.583Z,46.80
2022-09-29T08:20:31.561Z,46.80
2022-09-29T08:21:31.570Z,46.69
2022-09-29T08:22:31.547Z,46.59
2022-09-29T08:23:31.529Z,46.59
2022-09-29T08:24:31.510Z,46.59
2022-09-29T08:25:31.510Z,46.59
2022-09-29T08:26:41.301Z,46.50
2022-09-29T08:27:32.669Z,46.50
2022-09-29T08:28:32.624Z,46.39
2022-09-29T08:29:42.480Z,46.39
2022-09-29T08:30:32.447Z,46.30
2022-09-29T08:31:31.460Z,46.30
2022-09-29T08:32:31.450Z,46.30
2022-09-29T08:33:31.419Z,46.30
2022-09-29T08:34:31.619Z,46.39
2022-09-29T08:35:31.440Z,46.39
2022-09-29T08:36:31.400Z,46.50
2022-09-29T08:37:34.997Z,46.39
2022-09-29T08:38:31.380Z,46.37
2022-09-29T08:39:31.389Z,46.27
2022-09-29T08:40:31.403Z,46.27
2022-09-29T08:41:31.389Z,46.27
2022-09-29T08:42:43.909Z,46.27
2022-09-29T08:43:35.115Z,46.07
2022-09-29T08:44:39.636Z,46.07
2022-09-29T08:45:32.356Z,46.07
2022-09-29T08:46:35.720Z,46.07
2022-09-29T08:47:45.205Z,46.07
2022-09-29T08:48:32.260Z,46.07
2022-09-29T08:49:33.395Z,45.97
2022-09-29T08:50:31.266Z,45.97
2022-09-29T08:51:40.174Z,46.07
2022-09-29T08:52:42.141Z,45.97
2022-09-29T08:53:32.248Z,45.97
2022-09-29T08:54:38.497Z,45.97
2022-09-29T08:55:32.229Z,45.97
2022-09-29T08:56:31.210Z,45.87
2022-09-29T08:57:31.170Z,45.87
2022-09-29T08:58:31.194Z,45.97
2022-09-29T08:59:31.151Z,45.97
2022-09-29T09:00:31.152Z,45.97
2022-09-29T09:01:31.708Z,45.97
2022-09-29T09:02:31.844Z,45.97
2022-09-29T09:03:31.139Z,45.97
2022-09-29T09:05:27.434Z,45.97
2022-09-29T09:06:27.442Z,45.97
2022-09-29T09:07:28.394Z,46.17
2022-09-29T09:08:27.542Z,46.17
2022-09-29T09:09:27.385Z,46.17
2022-09-29T09:10:27.396Z,46.15
2022-09-29T09:11:27.398Z,46.25
2022-09-29T09:12:27.355Z,46.25
2022-09-29T09:13:27.629Z,45.95
2022-09-29T09:14:27.325Z,43.05
2022-09-29T09:15:27.332Z,41.38
2022-09-29T09:16:27.366Z,40.88
2022-09-29T09:17:27.304Z,41.17
2022-09-29T09:18:27.302Z,40.99
2022-09-29T09:19:27.275Z,41.02
2022-09-29T09:20:27.264Z,41.31
2022-09-29T09:21:27.264Z,41.43
2022-09-29T09:22:27.314Z,41.85
2022-09-29T09:23:27.586Z,41.96
2022-09-29T09:24:27.346Z,42.07
2022-09-29T09:25:27.235Z,42.18
2022-09-29T09:26:27.215Z,42.27
2022-09-29T09:27:27.286Z,42.49
2022-09-29T09:28:27.197Z,42.69
2022-09-29T09:29:27.186Z,42.90
2022-09-29T09:30:27.218Z,43.02
2022-09-29T09:31:27.162Z,43.12
2022-09-29T09:32:27.144Z,43.22
2022-09-29T09:33:31.477Z,43.32
2022-09-29T09:34:39.290Z,43.52
2022-09-29T09:35:28.104Z,43.32
2022-09-29T09:36:33.653Z,43.22
2022-09-29T09:37:28.091Z,43.32
2022-09-29T09:38:27.086Z,43.32
2022-09-29T09:39:27.115Z,43.32
2022-09-29T09:40:27.077Z,43.32
2022-09-29T09:41:27.056Z,43.32
2022-09-29T09:42:27.046Z,43.32
2022-09-29T09:43:27.096Z,43.32
2022-09-29T09:44:27.026Z,43.32
2022-09-29T09:45:27.015Z,43.40
2022-09-29T09:46:29.934Z,43.40
2022-09-29T09:47:28.024Z,43.40
2022-09-29T09:48:31.358Z,43.40
2022-09-29T09:49:26.985Z,43.50
2022-09-29T09:50:26.958Z,43.50
2022-09-29T09:51:26.935Z,43.40
2022-09-29T09:52:26.925Z,43.38
2022-09-29T09:53:26.925Z,43.18
2022-09-29T09:54:26.918Z,43.08
2022-09-29T09:55:26.938Z,43.08
2022-09-29T09:56:26.975Z,42.97
2022-09-29T09:57:26.890Z,42.97
2022-09-29T09:58:26.886Z,42.88
2022-09-29T09:59:26.868Z,42.85
2022-09-29T10:00:26.877Z,42.76
2022-09-29T10:01:26.912Z,42.76
2022-09-29T10:02:26.865Z,42.66
2022-09-29T10:03:26.828Z,42.66
2022-09-29T10:04:26.937Z,42.66
2022-09-29T10:05:26.807Z,42.66
2022-09-29T10:06:26.809Z,42.66
2022-09-29T10:07:26.829Z,42.63
2022-09-29T10:08:26.768Z,42.63
2022-09-29T10:09:26.821Z,42.54
2022-09-29T10:10:26.759Z,42.54
2022-09-29T10:11:26.735Z,42.54
2022-09-29T10:12:26.728Z,42.54
2022-09-29T10:13:26.746Z,42.54
2022-09-29T10:14:26.697Z,42.54
2022-09-29T10:15:27.157Z,42.54
2022-09-29T10:16:26.834Z,42.54
2022-09-29T10:17:26.677Z,42.54
2022-09-29T10:18:26.708Z,42.54
2022-09-29T10:19:26.679Z,42.54
2022-09-29T10:20:26.649Z,42.54
2022-09-29T10:21:27.089Z,42.63
2022-09-29T10:22:26.642Z,42.74
2022-09-29T10:23:26.630Z,42.74
2022-09-29T10:24:26.598Z,42.83
2022-09-29T10:25:26.607Z,42.83
2022-09-29T10:26:26.625Z,42.83
2022-09-29T10:27:26.607Z,42.83
2022-09-29T10:28:26.577Z,42.93
2022-09-29T10:29:26.547Z,42.93
2022-09-29T10:30:26.609Z,42.83
2022-09-29T10:31:26.547Z,42.82
2022-09-29T10:32:26.527Z,42.82
2022-09-29T10:33:26.628Z,42.82
2022-09-29T10:34:26.565Z,42.82
2022-09-29T10:35:26.518Z,42.82
2022-09-29T10:36:26.489Z,42.82
2022-09-29T10:37:26.509Z,42.82
2022-09-29T10:38:26.473Z,42.82
2022-09-29T10:39:26.451Z,42.82
2022-09-29T10:40:26.439Z,42.82
2022-09-29T10:41:26.457Z,42.82
2022-09-29T10:42:26.418Z,42.82
2022-09-29T10:43:26.429Z,42.82
2022-09-29T10:44:26.398Z,42.82
2022-09-29T10:45:26.598Z,42.82
2022-09-29T10:46:26.421Z,42.82
2022-09-29T10:47:26.366Z,42.82
2022-09-29T10:48:26.359Z,42.91
2022-09-29T10:49:26.369Z,42.82
2022-09-29T10:50:26.361Z,42.82
2022-09-29T10:51:26.354Z,42.82
2022-09-29T10:52:26.320Z,42.82
2022-09-29T10:53:26.318Z,42.82
2022-09-29T10:54:26.402Z,42.82
2022-09-29T10:55:26.291Z,42.71
2022-09-29T10:56:26.420Z,42.71
2022-09-29T10:57:26.329Z,42.71
2022-09-29T10:58:44.339Z,42.61
2022-09-29T10:59:27.250Z,42.71
2022-09-29T11:00:26.247Z,42.71
2022-09-29T11:01:26.274Z,42.82
2022-09-29T11:02:26.283Z,42.82
2022-09-29T11:03:26.419Z,42.82
2022-09-29T11:04:26.201Z,42.71
2022-09-29T11:05:26.200Z,42.41
2022-09-29T11:06:26.188Z,42.21
2022-09-29T11:07:26.177Z,42.21
2022-09-29T11:08:26.148Z,42.21
2022-09-29T11:09:26.194Z,42.32
2022-09-29T11:10:26.132Z,42.52
2022-09-29T11:11:27.808Z,42.61
2022-09-29T11:12:26.109Z,42.61
2022-09-29T11:13:26.139Z,42.61
2022-09-29T11:14:26.141Z,42.52
2022-09-29T11:15:26.080Z,42.52
2022-09-29T11:16:26.086Z,42.52
2022-09-29T11:17:26.081Z,42.41
2022-09-29T11:18:26.061Z,42.41
2022-09-29T11:19:27.751Z,42.41
2022-09-29T11:20:26.031Z,42.41
2022-09-29T11:21:26.022Z,42.41
2022-09-29T11:22:26.009Z,42.41
2022-09-29T11:23:26.044Z,42.32
2022-09-29T11:24:25.998Z,42.32
2022-09-29T11:25:25.969Z,42.32
2022-09-29T11:26:26.029Z,42.21
2022-09-29T11:27:25.979Z,42.21
2022-09-29T11:28:25.951Z,42.21
2022-09-29T11:29:26.129Z,42.21
2022-09-29T11:30:26.002Z,42.11
2022-09-29T11:31:25.922Z,42.11
2022-09-29T11:32:25.901Z,42.11
2022-09-29T11:33:25.929Z,42.10
2022-09-29T11:34:25.911Z,42.11
2022-09-29T11:35:25.902Z,42.10
2022-09-29T11:36:25.867Z,42.10
2022-09-29T11:37:25.853Z,42.10
2022-09-29T11:38:25.840Z,41.99
2022-09-29T11:39:25.839Z,41.99
2022-09-29T11:40:26.140Z,41.89
2022-09-29T11:41:25.869Z,41.80
2022-09-29T11:42:25.820Z,41.80
2022-09-29T11:43:25.790Z,41.80
2022-09-29T11:44:25.810Z,41.80
2022-09-29T11:45:25.851Z,41.89
2022-09-29T11:46:25.834Z,41.80
2022-09-29T11:47:25.762Z,41.80
2022-09-29T11:48:27.385Z,41.80
2022-09-29T11:49:25.772Z,41.69
2022-09-29T11:50:25.802Z,41.69
2022-09-29T11:51:25.712Z,41.69
2022-09-29T11:52:25.716Z,41.69
2022-09-29T11:53:25.702Z,41.69
2022-09-29T11:54:25.671Z,41.69
2022-09-29T11:55:25.719Z,41.69
2022-09-29T11:56:25.681Z,41.80
2022-09-29T11:57:25.640Z,41.69
2022-09-29T11:58:25.651Z,41.80
2022-09-29T11:59:25.709Z,41.80
2022-09-29T12:00:25.621Z,41.69
2022-09-29T12:01:25.601Z,41.80
2022-09-29T12:02:25.655Z,41.69
2022-09-29T12:03:26.148Z,41.69
2022-09-29T12:04:25.643Z,41.69
2022-09-29T12:05:25.583Z,41.69
2022-09-29T12:06:25.551Z,41.69
2022-09-29T12:07:25.554Z,41.69
2022-09-29T12:08:25.531Z,41.60
2022-09-29T12:09:25.602Z,41.60
2022-09-29T12:10:26.307Z,41.60
2022-09-29T12:11:47.279Z,41.49
2022-09-29T12:12:26.504Z,41.39
2022-09-29T12:13:25.495Z,41.39
2022-09-29T12:14:25.509Z,41.39
2022-09-29T12:16:25.547Z,41.19
2022-09-29T12:17:25.444Z,41.17
2022-09-29T12:18:25.432Z,41.09
2022-09-29T12:19:25.421Z,41.08
2022-09-29T12:20:25.452Z,40.97
2022-09-29T12:21:25.434Z,40.97
2022-09-29T12:22:25.397Z,41.08
2022-09-29T12:23:25.388Z,40.97
2022-09-29T12:24:25.401Z,40.88
2022-09-29T12:25:25.354Z,40.88
2022-09-29T12:26:25.869Z,40.97
2022-09-29T12:27:25.353Z,40.88
2022-09-29T12:28:25.334Z,40.78
2022-09-29T12:29:25.342Z,40.78
2022-09-29T12:30:25.345Z,40.78
2022-09-29T12:31:25.304Z,40.67
2022-09-29T12:32:25.294Z,40.67
2022-09-29T12:33:25.275Z,40.67
2022-09-29T12:34:25.305Z,40.67
2022-09-29T12:35:25.694Z,40.58
2022-09-29T12:36:25.243Z,40.58
2022-09-29T12:37:25.242Z,40.58
2022-09-29T12:38:25.223Z,40.58
2022-09-29T12:39:25.244Z,40.47
2022-09-29T12:40:25.204Z,40.58
2022-09-29T12:41:25.214Z,40.58
2022-09-29T12:42:25.186Z,40.58
2022-09-29T12:43:25.184Z,40.67
2022-09-29T12:44:25.174Z,40.67
2022-09-29T12:45:25.155Z,40.67
2022-09-29T12:46:26.926Z,40.67
2022-09-29T12:47:25.145Z,40.78
2022-09-29T12:48:25.155Z,40.78
2022-09-29T12:49:25.115Z,40.78
2022-09-29T12:50:25.119Z,40.78
2022-09-29T12:51:25.093Z,40.78
2022-09-29T12:52:25.193Z,40.78
2022-09-29T12:53:25.106Z,40.78
2022-09-29T12:54:25.054Z,40.67
2022-09-29T12:55:25.073Z,40.67
2022-09-29T12:56:25.096Z,40.78
2022-09-29T12:57:25.174Z,40.67
2022-09-29T12:58:25.035Z,40.58
2022-09-29T12:59:25.029Z,40.67
2022-09-29T13:00:25.006Z,40.47
2022-09-29T13:01:25.046Z,40.37
2022-09-29T13:02:25.022Z,40.28
2022-09-29T13:03:25.016Z,40.28
2022-09-29T13:04:24.967Z,40.28
2022-09-29T13:05:24.966Z,40.17
2022-09-29T13:06:24.934Z,40.17
2022-09-29T13:07:24.933Z,39.98
2022-09-29T13:08:24.934Z,40.17
2022-09-29T13:09:24.992Z,40.08
2022-09-29T13:10:24.907Z,40.17
2022-09-29T13:11:24.897Z,40.17
2022-09-29T13:12:24.889Z,40.08
2022-09-29T13:13:24.865Z,39.87
2022-09-29T13:14:24.875Z,39.87
2022-09-29T13:15:24.843Z,39.78
2022-09-29T13:16:24.932Z,39.87
2022-09-29T13:17:24.863Z,39.78
2022-09-29T13:18:24.816Z,39.78
2022-09-29T13:19:45.662Z,39.78
2022-09-29T13:20:25.809Z,39.67
2022-09-29T13:21:25.107Z,39.67
2022-09-29T13:22:24.809Z,39.78
2022-09-29T13:23:24.775Z,39.87
2022-09-29T13:24:24.760Z,39.78
2022-09-29T13:25:24.749Z,39.67
2022-09-29T13:26:24.760Z,39.78
2022-09-29T13:27:24.728Z,39.87
2022-09-29T13:28:24.737Z,39.87
2022-09-29T13:29:24.739Z,39.87
2022-09-29T13:30:24.699Z,39.87
2022-09-29T13:31:24.858Z,39.28
2022-09-29T13:32:24.696Z,39.28
2022-09-29T13:33:24.666Z,39.18
2022-09-29T13:34:25.008Z,38.87
2022-09-29T13:35:24.669Z,38.57
2022-09-29T13:36:24.717Z,38.57
2022-09-29T13:37:24.629Z,38.78
2022-09-29T13:38:24.618Z,39.00
2022-09-29T13:39:24.614Z,39.09
2022-09-29T13:40:24.597Z,39.29
2022-09-29T13:41:24.588Z,39.29
2022-09-29T13:42:24.604Z,39.39
2022-09-29T13:43:24.568Z,39.39
2022-09-29T13:44:24.567Z,39.59
2022-09-29T13:45:29.163Z,39.69
2022-09-29T13:46:25.560Z,39.79
2022-09-29T13:47:24.515Z,40.00
2022-09-29T13:48:24.557Z,40.00
2022-09-29T13:49:24.514Z,39.89
2022-09-29T13:50:24.506Z,39.89
2022-09-29T13:51:24.498Z,40.00
2022-09-29T13:52:24.476Z,40.00
2022-09-29T13:53:25.423Z,40.00
2022-09-29T13:54:24.478Z,40.00
2022-09-29T13:55:24.480Z,39.89
2022-09-29T13:56:24.439Z,40.00
2022-09-29T13:57:27.719Z,40.00
2022-09-29T13:58:25.068Z,40.09
2022-09-29T13:59:24.407Z,40.19
2022-09-29T14:00:24.404Z,40.19
2022-09-29T14:01:24.409Z,40.19
2022-09-29T14:02:24.396Z,40.09
2022-09-29T14:03:24.428Z,40.09
2022-09-29T14:04:24.346Z,40.09
2022-09-29T14:06:41.030Z,40.09
2022-09-29T14:07:22.088Z,40.17
2022-09-29T14:08:21.119Z,40.17
2022-09-29T14:09:21.328Z,40.17
2022-09-29T14:10:21.056Z,40.17
2022-09-29T14:11:21.067Z,40.28
2022-09-29T14:12:21.035Z,40.28
2022-09-29T14:13:21.048Z,40.37
2022-09-29T14:14:21.124Z,40.37
2022-09-29T14:15:21.067Z,40.47
2022-09-29T14:16:21.102Z,40.47
2022-09-29T14:17:21.038Z,40.47
2022-09-29T14:18:20.978Z,40.58
2022-09-29T14:19:21.007Z,40.58
2022-09-29T14:20:20.978Z,40.67
2022-09-29T14:21:20.938Z,40.58
2022-09-29T14:22:20.958Z,40.67
2022-09-29T14:23:20.936Z,40.67
2022-09-29T14:24:21.064Z,40.67
2022-09-29T14:25:20.926Z,40.67
2022-09-29T14:26:25.597Z,40.58
2022-09-29T14:27:21.877Z,40.58
2022-09-29T14:28:21.569Z,40.58
2022-09-29T14:29:20.887Z,40.58
2022-09-29T14:30:20.888Z,40.58
2022-09-29T14:31:20.999Z,40.67
2022-09-29T14:32:20.848Z,40.67
2022-09-29T14:33:20.838Z,40.67
2022-09-29T14:34:20.915Z,40.67
2022-09-29T14:35:20.822Z,40.67
2022-09-29T14:36:20.829Z,40.67
2022-09-29T14:37:20.786Z,40.78
2022-09-29T14:38:20.798Z,40.67
2022-09-29T14:39:28.025Z,40.78
2022-09-29T14:40:21.747Z,40.67
2022-09-29T14:41:20.778Z,40.67
2022-09-29T14:42:20.747Z,40.88
2022-09-29T14:43:20.737Z,40.78
2022-09-29T14:44:20.707Z,40.67
2022-09-29T14:45:20.713Z,40.47
2022-09-29T14:46:20.914Z,40.37
2022-09-29T14:47:20.698Z,40.28
2022-09-29T14:48:20.689Z,40.17
2022-09-29T14:49:20.755Z,40.08
2022-09-29T14:50:20.669Z,40.08
2022-09-29T14:51:20.667Z,40.08
2022-09-29T14:52:20.660Z,40.08
2022-09-29T14:53:20.627Z,40.08
2022-09-29T14:54:20.618Z,40.08
2022-09-29T14:55:20.609Z,40.08
2022-09-29T14:56:20.588Z,40.08
2022-09-29T14:57:20.599Z,40.08
2022-09-29T14:58:20.570Z,40.08
2022-09-29T14:59:21.114Z,40.08
2022-09-29T15:00:20.559Z,40.08
2022-09-29T15:01:20.540Z,40.08
2022-09-29T15:02:20.585Z,40.17
2022-09-29T15:03:27.541Z,39.07
2022-09-29T15:04:21.550Z,38.98
2022-09-29T15:05:20.534Z,39.18
2022-09-29T15:06:20.490Z,39.18
2022-09-29T15:07:20.481Z,38.98
2022-09-29T15:08:20.529Z,38.89
2022-09-29T15:09:20.812Z,38.89
2022-09-29T15:10:20.449Z,39.09
2022-09-29T15:11:20.458Z,39.09
2022-09-29T15:12:20.470Z,39.29
2022-09-29T15:13:20.440Z,39.00
2022-09-29T15:14:20.421Z,39.09
2022-09-29T15:15:20.408Z,39.39
2022-09-29T15:16:20.409Z,39.50
2022-09-29T15:17:20.368Z,39.59
2022-09-29T15:18:20.378Z,39.69
2022-09-29T15:19:20.452Z,39.79
2022-09-29T15:20:20.380Z,39.59
2022-09-29T15:21:20.342Z,39.59
2022-09-29T15:22:20.347Z,39.59
2022-09-29T15:23:20.319Z,39.50
2022-09-29T15:24:20.338Z,39.50
2022-09-29T15:25:20.291Z,39.59
2022-09-29T15:26:20.291Z,39.59
2022-09-29T15:27:20.291Z,39.69
2022-09-29T15:28:20.303Z,39.69
2022-09-29T15:29:20.524Z,39.69
2022-09-29T15:30:20.262Z,39.69
2022-09-29T15:31:20.326Z,39.79
2022-09-29T15:32:20.225Z,39.89
2022-09-29T15:33:20.232Z,39.89
2022-09-29T15:34:20.320Z,40.00
2022-09-29T15:35:20.209Z,40.09
2022-09-29T15:36:20.239Z,40.09
2022-09-29T15:37:20.169Z,40.09
2022-09-29T15:38:20.179Z,40.19
2022-09-29T15:39:20.169Z,40.19
2022-09-29T15:40:20.149Z,40.30
2022-09-29T15:41:20.128Z,40.30
2022-09-29T15:42:20.621Z,40.30
2022-09-29T15:43:20.236Z,40.39
2022-09-29T15:44:20.317Z,40.50
2022-09-29T15:45:20.117Z,40.50
2022-09-29T15:46:20.120Z,40.50
2022-09-29T15:47:20.091Z,40.59
2022-09-29T15:48:20.051Z,40.69
2022-09-29T15:49:20.041Z,40.69
2022-09-29T15:50:20.029Z,40.69
2022-09-29T15:51:20.026Z,40.80
2022-09-29T15:52:20.020Z,40.80
2022-09-29T15:53:20.063Z,40.89
2022-09-29T15:54:20.213Z,40.89
2022-09-29T15:55:19.995Z,40.89
2022-09-29T15:56:19.979Z,40.99
2022-09-29T15:57:19.992Z,40.99
2022-09-29T15:58:19.982Z,40.99
2022-09-29T15:59:20.052Z,40.99
2022-09-29T16:00:20.592Z,40.99
2022-09-29T16:01:19.956Z,40.99
2022-09-29T16:02:19.963Z,40.99
2022-09-29T16:03:19.924Z,40.99
2022-09-29T16:04:19.972Z,40.99
2022-09-29T16:05:19.881Z,40.99
2022-09-29T16:06:19.901Z,40.99
2022-09-29T16:07:19.851Z,40.99
2022-09-29T16:08:19.870Z,41.02
2022-09-29T16:09:19.937Z,40.99
2022-09-29T16:10:19.840Z,41.09
2022-09-29T16:11:19.811Z,41.09
2022-09-29T16:12:19.830Z,41.11
2022-09-29T16:13:19.804Z,41.09
2022-09-29T16:14:19.902Z,41.11
2022-09-29T16:15:19.803Z,41.11
2022-09-29T16:16:19.856Z,41.11
2022-09-29T16:17:19.751Z,41.11
2022-09-29T16:18:19.772Z,41.11
2022-09-29T16:19:19.771Z,41.21
2022-09-29T16:20:19.731Z,41.21
2022-09-29T16:21:19.761Z,41.21
2022-09-29T16:22:19.722Z,41.21
2022-09-29T16:23:19.693Z,41.21
2022-09-29T16:24:19.758Z,41.21
2022-09-29T16:25:19.692Z,41.21
2022-09-29T16:26:19.671Z,41.21
2022-09-29T16:27:19.664Z,41.31
2022-09-29T16:28:19.663Z,41.31
2022-09-29T16:29:19.651Z,41.31
2022-09-29T16:30:19.804Z,41.31
2022-09-29T16:31:19.635Z,41.31
2022-09-29T16:32:19.594Z,41.31
2022-09-29T16:33:19.603Z,41.31
2022-09-29T16:34:19.627Z,41.41
2022-09-29T16:35:19.612Z,41.41
2022-09-29T16:36:19.582Z,41.41
2022-09-29T16:37:19.544Z,41.41
2022-09-29T16:38:19.543Z,41.41
2022-09-29T16:39:20.246Z,41.52
2022-09-29T16:40:19.515Z,41.52
2022-09-29T16:41:19.503Z,41.52
2022-09-29T16:42:19.566Z,41.52
2022-09-29T16:43:19.516Z,41.52
2022-09-29T16:44:19.639Z,41.52
2022-09-29T16:45:19.483Z,41.52
2022-09-29T16:46:19.562Z,41.61
2022-09-29T16:47:19.444Z,41.61
2022-09-29T16:48:19.462Z,41.61
2022-09-29T16:49:19.423Z,41.61
2022-09-29T16:50:19.481Z,41.61
2022-09-29T16:51:38.295Z,41.61
2022-09-29T16:52:20.424Z,41.61
2022-09-29T16:53:19.384Z,41.71
2022-09-29T16:54:19.403Z,41.71
2022-09-29T16:55:19.414Z,41.71
2022-09-29T16:56:20.522Z,41.71
2022-09-29T16:57:19.418Z,41.71
2022-09-29T16:58:19.346Z,41.82
2022-09-29T16:59:19.326Z,41.91
2022-09-29T17:00:19.383Z,41.91
2022-09-29T17:01:19.389Z,42.02
2022-09-29T17:02:19.354Z,41.91
2022-09-29T17:03:19.293Z,41.91
2022-09-29T17:04:19.344Z,41.91
2022-09-29T17:05:19.264Z,41.91
2022-09-29T17:06:19.255Z,42.02
2022-09-29T17:07:19.254Z,42.13
2022-09-29T17:08:19.224Z,42.32
2022-09-29T17:09:19.587Z,42.33
2022-09-29T17:10:19.227Z,42.43
2022-09-29T17:11:19.195Z,42.54
2022-09-29T17:12:19.206Z,43.43
2022-09-29T17:13:19.234Z,43.84
2022-09-29T17:14:19.216Z,44.64
2022-09-29T17:15:19.244Z,45.43
2022-09-29T17:16:19.240Z,46.54
2022-09-29T17:17:19.185Z,47.24
2022-09-29T17:18:19.216Z,47.54
2022-09-29T17:19:19.216Z,47.94
2022-09-29T17:20:19.205Z,48.14
2022-09-29T17:21:19.787Z,48.94
2022-09-29T17:22:19.124Z,49.44
2022-09-29T17:23:19.124Z,49.64
2022-09-29T17:24:19.155Z,49.84
2022-09-29T17:25:19.116Z,50.04
2022-09-29T17:26:19.277Z,50.24
2022-09-29T17:27:19.158Z,50.34
2022-09-29T17:28:19.079Z,50.24
2022-09-29T17:29:19.103Z,50.14
2022-09-29T17:30:19.046Z,49.94
2022-09-29T17:31:19.074Z,49.94
2022-09-29T17:32:19.027Z,50.04
2022-09-29T17:33:19.037Z,50.04
2022-09-29T17:34:18.995Z,50.14
2022-09-29T17:35:19.010Z,50.14
2022-09-29T17:36:18.983Z,50.24
2022-09-29T17:37:18.985Z,50.24
2022-09-29T17:38:18.964Z,50.14
2022-09-29T17:39:18.967Z,50.04
2022-09-29T17:40:18.945Z,50.04
2022-09-29T17:41:18.948Z,50.04
2022-09-29T17:42:18.957Z,49.94
2022-09-29T17:43:18.938Z,49.84
2022-09-29T17:44:18.907Z,49.74
2022-09-29T17:45:18.957Z,49.64
2022-09-29T17:46:18.941Z,49.64
2022-09-29T17:47:35.117Z,49.54
2022-09-29T17:48:19.886Z,49.34
2022-09-29T17:49:18.846Z,49.24
2022-09-29T17:50:18.855Z,49.24
2022-09-29T17:51:18.826Z,49.04
2022-09-29T17:52:18.815Z,48.84
2022-09-29T17:53:18.816Z,48.74
2022-09-29T17:54:18.987Z,48.64
2022-09-29T17:55:19.210Z,48.54
2022-09-29T17:56:18.935Z,48.44
2022-09-29T17:57:18.780Z,48.34
2022-09-29T17:58:18.759Z,48.34
2022-09-29T17:59:18.767Z,48.24
2022-09-29T18:00:18.768Z,48.14
2022-09-29T18:01:19.551Z,48.14
2022-09-29T18:02:18.798Z,48.04
2022-09-29T18:03:18.716Z,48.04
2022-09-29T18:04:18.796Z,47.94
2022-09-29T18:05:18.739Z,47.94
2022-09-29T18:06:18.686Z,47.84
2022-09-29T18:07:18.715Z,47.84
2022-09-29T18:08:18.646Z,47.74
2022-09-29T18:09:18.681Z,47.74
2022-09-29T18:10:20.397Z,47.64
2022-09-29T18:11:18.673Z,47.64
2022-09-29T18:12:18.641Z,47.64
2022-09-29T18:13:18.618Z,47.54
2022-09-29T18:14:18.605Z,47.54
2022-09-29T18:15:18.589Z,47.54
2022-09-29T18:16:18.644Z,47.44
2022-09-29T18:17:18.562Z,47.44
2022-09-29T18:18:18.557Z,47.44
2022-09-29T18:19:18.568Z,47.34
2022-09-29T18:20:18.533Z,47.34
2022-09-29T18:21:18.519Z,47.34
2022-09-29T18:22:18.530Z,47.34
2022-09-29T18:23:18.501Z,47.24
2022-09-29T18:24:18.523Z,47.24
2022-09-29T18:25:18.517Z,47.26
2022-09-29T18:26:18.473Z,47.24
2022-09-29T18:27:18.479Z,47.14
2022-09-29T18:28:18.789Z,47.16
2022-09-29T18:29:18.438Z,47.16
2022-09-29T18:30:18.417Z,47.16
2022-09-29T18:31:18.448Z,47.06
2022-09-29T18:32:18.398Z,47.06
2022-09-29T18:33:19.347Z,47.06
2022-09-29T18:34:18.645Z,47.06
2022-09-29T18:35:18.377Z,47.06
2022-09-29T18:36:18.347Z,46.96
2022-09-29T18:37:18.420Z,46.96
2022-09-29T18:38:18.347Z,46.96
2022-09-29T18:39:18.400Z,46.96
2022-09-29T18:40:18.329Z,46.96
2022-09-29T18:41:18.323Z,46.86
2022-09-29T18:42:18.350Z,46.86
2022-09-29T18:43:18.291Z,46.86
2022-09-29T18:44:18.269Z,46.86
2022-09-29T18:45:18.269Z,46.76
2022-09-29T18:46:20.051Z,46.76
2022-09-29T18:47:18.268Z,46.76
2022-09-29T18:48:18.228Z,46.76
2022-09-29T18:49:18.335Z,46.76
2022-09-29T18:50:18.218Z,46.76
2022-09-29T18:51:21.314Z,46.76
2022-09-29T18:52:18.208Z,46.66
2022-09-29T18:53:18.222Z,46.66
2022-09-29T18:54:18.198Z,46.66
2022-09-29T18:55:18.160Z,46.66
2022-09-29T18:56:18.259Z,46.66
2022-09-29T18:57:18.149Z,46.56
2022-09-29T18:58:18.169Z,46.56
2022-09-29T18:59:18.219Z,46.56
2022-09-29T19:00:18.113Z,46.56
2022-09-29T19:01:18.163Z,46.56
2022-09-29T19:02:18.142Z,46.56
2022-09-29T19:03:18.087Z,46.46
2022-09-29T19:04:18.109Z,46.46
2022-09-29T19:05:18.070Z,46.46
2022-09-29T19:07:14.838Z,46.46
2022-09-29T19:08:14.809Z,46.46
2022-09-29T19:09:14.929Z,46.46
2022-09-29T19:10:14.780Z,46.46
2022-09-29T19:11:14.770Z,46.46
2022-09-29T19:12:14.760Z,46.46
2022-09-29T19:13:14.931Z,46.36
2022-09-29T19:14:14.738Z,46.36
2022-09-29T19:15:14.749Z,46.36
2022-09-29T19:16:14.756Z,46.36
2022-09-29T19:17:14.738Z,46.36
2022-09-29T19:18:15.178Z,46.36
2022-09-29T19:19:14.679Z,46.26
2022-09-29T19:20:14.678Z,46.26
2022-09-29T19:21:14.678Z,46.26
2022-09-29T19:22:14.680Z,46.26
2022-09-29T19:23:14.640Z,46.26
2022-09-29T19:24:14.650Z,46.26
2022-09-29T19:25:14.621Z,46.26
2022-09-29T19:26:14.664Z,46.26
2022-09-29T19:27:14.620Z,46.16
2022-09-29T19:28:14.600Z,46.16
2022-09-29T19:29:14.651Z,46.16
2022-09-29T19:30:14.569Z,46.16
2022-09-29T19:31:14.604Z,46.16
2022-09-29T19:32:14.549Z,46.16
2022-09-29T19:33:14.559Z,46.16
2022-09-29T19:34:14.544Z,46.16
2022-09-29T19:35:14.509Z,46.16
2022-09-29T19:36:14.499Z,46.06
2022-09-29T19:37:14.510Z,46.06
2022-09-29T19:38:14.491Z,46.06
2022-09-29T19:39:14.595Z,46.06
2022-09-29T19:40:14.481Z,46.06
2022-09-29T19:41:14.452Z,46.06
2022-09-29T19:42:14.469Z,46.06
2022-09-29T19:43:14.517Z,46.06
2022-09-29T19:44:14.482Z,46.06
2022-09-29T19:45:14.410Z,46.06
2022-09-29T19:46:14.460Z,45.96
2022-09-29T19:47:14.422Z,45.96
2022-09-29T19:48:14.422Z,45.96
2022-09-29T19:49:14.400Z,45.96
2022-09-29T19:50:14.425Z,45.96
2022-09-29T19:51:14.362Z,45.96
2022-09-29T19:52:14.362Z,45.96
2022-09-29T19:53:14.343Z,45.96
2022-09-29T19:54:14.384Z,45.86
2022-09-29T19:55:14.361Z,45.86
2022-09-29T19:56:14.383Z,45.86
2022-09-29T19:57:14.338Z,45.86
2022-09-29T19:58:14.270Z,45.86
2022-09-29T19:59:14.286Z,45.86
2022-09-29T20:00:14.270Z,45.86
2022-09-29T20:01:14.240Z,45.86
2022-09-29T20:02:14.245Z,45.86
2022-09-29T20:03:14.317Z,45.86
2022-09-29T20:04:14.405Z,45.86
2022-09-29T20:05:14.201Z,45.86
2022-09-29T20:06:14.213Z,45.86
2022-09-29T20:07:14.232Z,45.76
2022-09-29T20:08:14.172Z,45.76
2022-09-29T20:09:14.237Z,45.76
2022-09-29T20:10:14.151Z,45.76
2022-09-29T20:11:14.150Z,45.76
2022-09-29T20:12:19.146Z,45.76
2022-09-29T20:13:15.110Z,45.76
2022-09-29T20:14:14.178Z,45.76
2022-09-29T20:15:14.100Z,45.76
2022-09-29T20:16:14.165Z,45.66
2022-09-29T20:17:14.092Z,45.76
2022-09-29T20:18:14.082Z,45.66
2022-09-29T20:19:14.086Z,45.66
2022-09-29T20:20:14.060Z,45.66
2022-09-29T20:21:14.043Z,45.66
2022-09-29T20:22:14.032Z,45.66
2022-09-29T20:23:14.023Z,45.66
2022-09-29T20:24:14.090Z,45.66
2022-09-29T20:25:14.025Z,45.66
2022-09-29T20:26:13.980Z,45.66
2022-09-29T20:27:13.971Z,45.66
2022-09-29T20:28:15.641Z,45.66
2022-09-29T20:29:13.950Z,45.56
2022-09-29T20:30:13.943Z,45.56
2022-09-29T20:31:13.996Z,45.56
2022-09-29T20:32:13.930Z,45.56
2022-09-29T20:33:13.921Z,45.56
2022-09-29T20:34:13.979Z,45.56
2022-09-29T20:35:13.892Z,45.56
2022-09-29T20:36:13.933Z,45.56
2022-09-29T20:37:13.873Z,45.56
2022-09-29T20:38:13.863Z,45.56
2022-09-29T20:39:13.880Z,45.46
2022-09-29T20:40:13.842Z,45.46
2022-09-29T20:41:14.002Z,45.46
2022-09-29T20:42:14.159Z,45.46
2022-09-29T20:43:13.801Z,45.46
2022-09-29T20:44:13.865Z,45.46
2022-09-29T20:45:13.790Z,45.46
2022-09-29T20:46:13.874Z,45.46
2022-09-29T20:47:13.774Z,45.46
2022-09-29T20:48:13.763Z,45.46
2022-09-29T20:49:13.753Z,45.46
2022-09-29T20:50:13.731Z,45.46
2022-09-29T20:51:13.754Z,45.46
2022-09-29T20:52:13.740Z,45.36
2022-09-29T20:53:13.781Z,45.36
2022-09-29T20:54:13.802Z,45.36
2022-09-29T20:55:13.681Z,45.36
2022-09-29T20:56:13.681Z,45.36
2022-09-29T20:57:13.681Z,45.36
2022-09-29T20:58:13.723Z,45.36
2022-09-29T20:59:13.694Z,45.36